sensor_id;sensor_type;location;lat;lon;timestamp;temperature;humidity
38118;DHT22;23928;47.562;7.508;2023-12-28T00:02:16;1.60;99.90
38118;DHT22;23928;47.562;7.508;2023-12-28T00:04:42;1.60;99.90
38118;DHT22;23928;47.562;7.508;2023-12-28T00:07:07;1.60;99.90
38118;DHT22;23928;47.562;7.508;2023-12-28T00:09:33;1.60;99.90
38118;DHT22;23928;47.562;7.508;2023-12-28T00:11:59;1.60;99.90
38118;DHT22;23928;47.562;7.508;2023-12-28T00:14:24;1.60;99.90
38118;DHT22;23928;47.562;7.508;2023-12-28T00:16:50;1.60;99.90
38118;DHT22;23928;47.562;7.508;2023-12-28T00:19:15;1.50;99.90
38118;DHT22;23928;47.562;7.508;2023-12-28T00:21:41;1.60;99.90
38118;DHT22;23928;47.562;7.508;2023-12-28T00:24:07;1.50;99.90
38118;DHT22;23928;47.562;7.508;2023-12-28T00:26:32;1.80;99.90
38118;DHT22;23928;47.562;7.508;2023-12-28T00:28:58;1.90;99.90
38118;DHT22;23928;47.562;7.508;2023-12-28T00:31:23;1.70;99.90
38118;DHT22;23928;47.562;7.508;2023-12-28T00:33:49;1.80;99.90
38118;DHT22;23928;47.562;7.508;2023-12-28T00:36:15;1.80;99.90
38118;DHT22;23928;47.562;7.508;2023-12-28T00:38:42;1.60;99.90
38118;DHT22;23928;47.562;7.508;2023-12-28T00:41:07;1.60;99.90
38118;DHT22;23928;47.562;7.508;2023-12-28T00:43:33;1.40;99.90
38118;DHT22;23928;47.562;7.508;2023-12-28T00:45:59;1.50;99.90
38118;DHT22;23928;47.562;7.508;2023-12-28T00:48:24;1.60;99.90
38118;DHT22;23928;47.562;7.508;2023-12-28T00:50:50;1.60;99.90
38118;DHT22;23928;47.562;7.508;2023-12-28T00:53:16;1.60;99.90
38118;DHT22;23928;47.562;7.508;2023-12-28T00:55:41;1.60;99.90
38118;DHT22;23928;47.562;7.508;2023-12-28T00:58:07;1.60;99.90
38118;DHT22;23928;47.562;7.508;2023-12-28T01:00:32;1.70;99.90
38118;DHT22;23928;47.562;7.508;2023-12-28T01:02:58;1.60;99.90
38118;DHT22;23928;47.562;7.508;2023-12-28T01:05:23;1.60;99.90
38118;DHT22;23928;47.562;7.508;2023-12-28T01:07:51;1.30;99.90
38118;DHT22;23928;47.562;7.508;2023-12-28T01:10:17;1.40;99.90
38118;DHT22;23928;47.562;7.508;2023-12-28T01:12:42;1.40;99.90
38118;DHT22;23928;47.562;7.508;2023-12-28T01:15:08;1.50;99.90
38118;DHT22;23928;47.562;7.508;2023-12-28T01:17:34;1.40;99.90
38118;DHT22;23928;47.562;7.508;2023-12-28T01:20:00;1.40;99.90
38118;DHT22;23928;47.562;7.508;2023-12-28T01:22:25;1.10;99.90
38118;DHT22;23928;47.562;7.508;2023-12-28T01:24:51;0.80;99.90
38118;DHT22;23928;47.562;7.508;2023-12-28T01:27:16;0.90;99.90
38118;DHT22;23928;47.562;7.508;2023-12-28T01:29:42;1.00;99.90
38118;DHT22;23928;47.562;7.508;2023-12-28T01:32:08;1.10;99.90
38118;DHT22;23928;47.562;7.508;2023-12-28T01:34:33;0.90;99.90
38118;DHT22;23928;47.562;7.508;2023-12-28T01:36:59;0.90;99.90
38118;DHT22;23928;47.562;7.508;2023-12-28T01:39:24;1.10;99.90
38118;DHT22;23928;47.562;7.508;2023-12-28T01:41:50;1.10;99.90
38118;DHT22;23928;47.562;7.508;2023-12-28T01:44:15;1.10;99.90
38118;DHT22;23928;47.562;7.508;2023-12-28T01:46:41;1.20;99.90
38118;DHT22;23928;47.562;7.508;2023-12-28T01:49:07;1.10;99.90
38118;DHT22;23928;47.562;7.508;2023-12-28T01:51:33;1.00;99.90
38118;DHT22;23928;47.562;7.508;2023-12-28T01:54:00;0.90;99.90
38118;DHT22;23928;47.562;7.508;2023-12-28T01:56:26;0.90;99.90
38118;DHT22;23928;47.562;7.508;2023-12-28T01:58:52;1.00;99.90
38118;DHT22;23928;47.562;7.508;2023-12-28T02:01:18;1.10;99.90
38118;DHT22;23928;47.562;7.508;2023-12-28T02:03:45;1.20;99.90
38118;DHT22;23928;47.562;7.508;2023-12-28T02:06:12;1.10;99.90
38118;DHT22;23928;47.562;7.508;2023-12-28T02:08:38;1.20;99.90
38118;DHT22;23928;47.562;7.508;2023-12-28T02:11:04;1.20;99.90
38118;DHT22;23928;47.562;7.508;2023-12-28T02:13:30;1.20;99.90
38118;DHT22;23928;47.562;7.508;2023-12-28T02:16:12;1.20;99.90
38118;DHT22;23928;47.562;7.508;2023-12-28T02:18:43;1.20;99.90
38118;DHT22;23928;47.562;7.508;2023-12-28T02:21:09;1.00;99.90
38118;DHT22;23928;47.562;7.508;2023-12-28T02:23:37;1.00;99.90
38118;DHT22;23928;47.562;7.508;2023-12-28T02:26:03;0.90;99.90
38118;DHT22;23928;47.562;7.508;2023-12-28T02:28:29;0.90;99.90
38118;DHT22;23928;47.562;7.508;2023-12-28T02:30:54;0.90;99.90
38118;DHT22;23928;47.562;7.508;2023-12-28T02:33:27;0.80;99.90
38118;DHT22;23928;47.562;7.508;2023-12-28T02:36:10;0.60;99.90
38118;DHT22;23928;47.562;7.508;2023-12-28T02:38:37;0.60;99.90
38118;DHT22;23928;47.562;7.508;2023-12-28T02:41:04;0.50;99.90
38118;DHT22;23928;47.562;7.508;2023-12-28T02:43:30;0.60;99.90
38118;DHT22;23928;47.562;7.508;2023-12-28T02:45:56;0.50;99.90
38118;DHT22;23928;47.562;7.508;2023-12-28T02:48:21;0.70;99.90
38118;DHT22;23928;47.562;7.508;2023-12-28T02:50:47;0.70;99.90
38118;DHT22;23928;47.562;7.508;2023-12-28T02:53:13;0.70;99.90
38118;DHT22;23928;47.562;7.508;2023-12-28T02:55:39;0.90;99.90
38118;DHT22;23928;47.562;7.508;2023-12-28T02:58:04;0.90;99.90
38118;DHT22;23928;47.562;7.508;2023-12-28T03:00:30;0.90;99.90
38118;DHT22;23928;47.562;7.508;2023-12-28T03:02:56;1.00;99.90
38118;DHT22;23928;47.562;7.508;2023-12-28T03:05:21;1.00;99.90
38118;DHT22;23928;47.562;7.508;2023-12-28T03:07:47;0.90;99.90
38118;DHT22;23928;47.562;7.508;2023-12-28T03:10:13;0.90;99.90
38118;DHT22;23928;47.562;7.508;2023-12-28T03:12:38;0.90;99.90
38118;DHT22;23928;47.562;7.508;2023-12-28T03:15:05;0.90;99.90
38118;DHT22;23928;47.562;7.508;2023-12-28T03:17:31;1.00;99.90
38118;DHT22;23928;47.562;7.508;2023-12-28T03:19:58;0.90;99.90
38118;DHT22;23928;47.562;7.508;2023-12-28T03:22:24;0.80;99.90
38118;DHT22;23928;47.562;7.508;2023-12-28T03:24:49;0.90;99.90
38118;DHT22;23928;47.562;7.508;2023-12-28T03:27:15;0.90;99.90
38118;DHT22;23928;47.562;7.508;2023-12-28T03:29:41;0.90;99.90
38118;DHT22;23928;47.562;7.508;2023-12-28T03:32:08;1.00;99.90
38118;DHT22;23928;47.562;7.508;2023-12-28T03:34:34;0.90;99.90
38118;DHT22;23928;47.562;7.508;2023-12-28T03:36:59;0.90;99.90
38118;DHT22;23928;47.562;7.508;2023-12-28T03:39:25;0.80;99.90
38118;DHT22;23928;47.562;7.508;2023-12-28T03:41:51;0.90;99.90
38118;DHT22;23928;47.562;7.508;2023-12-28T03:44:20;0.90;99.90
38118;DHT22;23928;47.562;7.508;2023-12-28T03:46:50;0.80;99.90
38118;DHT22;23928;47.562;7.508;2023-12-28T03:49:20;0.70;99.90
38118;DHT22;23928;47.562;7.508;2023-12-28T03:51:46;0.80;99.90
38118;DHT22;23928;47.562;7.508;2023-12-28T03:54:12;0.70;99.90
38118;DHT22;23928;47.562;7.508;2023-12-28T03:56:38;0.80;99.90
38118;DHT22;23928;47.562;7.508;2023-12-28T03:59:08;0.80;99.90
38118;DHT22;23928;47.562;7.508;2023-12-28T04:01:34;0.80;99.90
38118;DHT22;23928;47.562;7.508;2023-12-28T04:04:00;0.70;99.90
38118;DHT22;23928;47.562;7.508;2023-12-28T04:06:25;0.80;99.90
38118;DHT22;23928;47.562;7.508;2023-12-28T04:08:51;1.00;99.90
38118;DHT22;23928;47.562;7.508;2023-12-28T04:11:16;1.10;99.90
38118;DHT22;23928;47.562;7.508;2023-12-28T04:13:42;1.10;99.90
38118;DHT22;23928;47.562;7.508;2023-12-28T04:16:11;1.00;99.90
38118;DHT22;23928;47.562;7.508;2023-12-28T04:18:37;1.00;99.90
38118;DHT22;23928;47.562;7.508;2023-12-28T04:21:02;1.00;99.90
38118;DHT22;23928;47.562;7.508;2023-12-28T04:23:28;1.00;99.90
38118;DHT22;23928;47.562;7.508;2023-12-28T04:25:53;1.00;99.90
38118;DHT22;23928;47.562;7.508;2023-12-28T04:28:19;0.90;99.90
38118;DHT22;23928;47.562;7.508;2023-12-28T04:30:45;0.90;99.90
38118;DHT22;23928;47.562;7.508;2023-12-28T04:33:10;0.90;99.90
38118;DHT22;23928;47.562;7.508;2023-12-28T04:35:36;0.90;99.90
38118;DHT22;23928;47.562;7.508;2023-12-28T04:38:01;0.80;99.90
38118;DHT22;23928;47.562;7.508;2023-12-28T04:40:28;0.80;99.90
38118;DHT22;23928;47.562;7.508;2023-12-28T04:42:53;0.80;99.90
38118;DHT22;23928;47.562;7.508;2023-12-28T04:45:19;0.90;99.90
38118;DHT22;23928;47.562;7.508;2023-12-28T04:47:45;0.80;99.90
38118;DHT22;23928;47.562;7.508;2023-12-28T04:50:10;0.70;99.90
38118;DHT22;23928;47.562;7.508;2023-12-28T04:52:36;0.80;99.90
38118;DHT22;23928;47.562;7.508;2023-12-28T04:55:01;0.80;99.90
38118;DHT22;23928;47.562;7.508;2023-12-28T04:57:27;0.70;99.90
38118;DHT22;23928;47.562;7.508;2023-12-28T04:59:54;0.70;99.90
38118;DHT22;23928;47.562;7.508;2023-12-28T05:02:20;0.70;99.90
38118;DHT22;23928;47.562;7.508;2023-12-28T05:04:45;0.70;99.90
38118;DHT22;23928;47.562;7.508;2023-12-28T05:07:11;0.60;99.90
38118;DHT22;23928;47.562;7.508;2023-12-28T05:09:36;0.60;99.90
38118;DHT22;23928;47.562;7.508;2023-12-28T05:12:02;0.50;99.90
38118;DHT22;23928;47.562;7.508;2023-12-28T05:14:28;0.60;99.90
38118;DHT22;23928;47.562;7.508;2023-12-28T05:16:54;0.70;99.90
38118;DHT22;23928;47.562;7.508;2023-12-28T05:19:19;0.80;99.90
38118;DHT22;23928;47.562;7.508;2023-12-28T05:21:45;0.80;99.90
38118;DHT22;23928;47.562;7.508;2023-12-28T05:24:12;0.80;99.90
38118;DHT22;23928;47.562;7.508;2023-12-28T05:26:38;1.00;99.90
38118;DHT22;23928;47.562;7.508;2023-12-28T05:29:03;1.10;99.90
38118;DHT22;23928;47.562;7.508;2023-12-28T05:31:29;1.10;99.90
38118;DHT22;23928;47.562;7.508;2023-12-28T05:33:54;1.10;99.90
38118;DHT22;23928;47.562;7.508;2023-12-28T05:36:20;1.20;99.90
38118;DHT22;23928;47.562;7.508;2023-12-28T05:38:46;1.30;99.90
38118;DHT22;23928;47.562;7.508;2023-12-28T05:41:11;1.20;99.90
38118;DHT22;23928;47.562;7.508;2023-12-28T05:43:37;1.40;99.90
38118;DHT22;23928;47.562;7.508;2023-12-28T05:46:04;1.30;99.90
38118;DHT22;23928;47.562;7.508;2023-12-28T05:48:29;1.40;99.90
38118;DHT22;23928;47.562;7.508;2023-12-28T05:50:57;1.50;99.90
38118;DHT22;23928;47.562;7.508;2023-12-28T05:53:23;1.30;99.90
38118;DHT22;23928;47.562;7.508;2023-12-28T05:55:49;1.30;99.90
38118;DHT22;23928;47.562;7.508;2023-12-28T05:58:15;1.60;99.90
38118;DHT22;23928;47.562;7.508;2023-12-28T06:00:40;1.70;99.90
38118;DHT22;23928;47.562;7.508;2023-12-28T06:03:06;1.70;99.90
38118;DHT22;23928;47.562;7.508;2023-12-28T06:05:31;1.70;99.90
38118;DHT22;23928;47.562;7.508;2023-12-28T06:07:57;1.70;99.90
38118;DHT22;23928;47.562;7.508;2023-12-28T06:10:23;1.60;99.90
38118;DHT22;23928;47.562;7.508;2023-12-28T06:12:50;1.70;99.90
38118;DHT22;23928;47.562;7.508;2023-12-28T06:15:15;1.80;99.90
38118;DHT22;23928;47.562;7.508;2023-12-28T06:17:41;1.90;99.90
38118;DHT22;23928;47.562;7.508;2023-12-28T06:20:07;1.80;99.90
38118;DHT22;23928;47.562;7.508;2023-12-28T06:22:36;1.70;99.90
38118;DHT22;23928;47.562;7.508;2023-12-28T06:25:01;1.60;99.90
38118;DHT22;23928;47.562;7.508;2023-12-28T06:27:27;1.80;99.90
38118;DHT22;23928;47.562;7.508;2023-12-28T06:29:53;1.90;99.90
38118;DHT22;23928;47.562;7.508;2023-12-28T06:32:18;2.00;99.90
38118;DHT22;23928;47.562;7.508;2023-12-28T06:34:44;1.90;99.90
38118;DHT22;23928;47.562;7.508;2023-12-28T06:37:09;2.10;99.90
38118;DHT22;23928;47.562;7.508;2023-12-28T06:39:35;2.20;99.90
38118;DHT22;23928;47.562;7.508;2023-12-28T06:42:00;2.40;99.90
38118;DHT22;23928;47.562;7.508;2023-12-28T06:44:26;2.30;99.90
38118;DHT22;23928;47.562;7.508;2023-12-28T06:46:51;2.30;99.90
38118;DHT22;23928;47.562;7.508;2023-12-28T06:49:17;2.30;99.90
38118;DHT22;23928;47.562;7.508;2023-12-28T06:51:43;2.40;99.90
38118;DHT22;23928;47.562;7.508;2023-12-28T06:54:11;2.50;99.90
38118;DHT22;23928;47.562;7.508;2023-12-28T06:56:36;2.40;99.90
38118;DHT22;23928;47.562;7.508;2023-12-28T06:59:02;2.20;99.90
38118;DHT22;23928;47.562;7.508;2023-12-28T07:01:27;2.20;99.90
38118;DHT22;23928;47.562;7.508;2023-12-28T07:03:53;2.40;99.90
38118;DHT22;23928;47.562;7.508;2023-12-28T07:06:18;2.50;99.90
38118;DHT22;23928;47.562;7.508;2023-12-28T07:08:44;2.60;99.90
38118;DHT22;23928;47.562;7.508;2023-12-28T07:11:10;2.50;99.90
38118;DHT22;23928;47.562;7.508;2023-12-28T07:13:36;2.50;99.90
38118;DHT22;23928;47.562;7.508;2023-12-28T07:16:02;2.50;99.90
38118;DHT22;23928;47.562;7.508;2023-12-28T07:18:28;2.60;99.90
38118;DHT22;23928;47.562;7.508;2023-12-28T07:20:54;2.60;99.90
38118;DHT22;23928;47.562;7.508;2023-12-28T07:23:19;2.60;99.90
38118;DHT22;23928;47.562;7.508;2023-12-28T07:25:45;2.60;99.90
38118;DHT22;23928;47.562;7.508;2023-12-28T07:28:11;2.80;99.90
38118;DHT22;23928;47.562;7.508;2023-12-28T07:30:37;2.80;99.90
38118;DHT22;23928;47.562;7.508;2023-12-28T07:33:03;2.80;99.90
38118;DHT22;23928;47.562;7.508;2023-12-28T07:35:29;2.80;99.90
38118;DHT22;23928;47.562;7.508;2023-12-28T07:37:54;3.10;99.90
38118;DHT22;23928;47.562;7.508;2023-12-28T07:40:20;3.20;99.90
38118;DHT22;23928;47.562;7.508;2023-12-28T07:42:46;3.10;99.90
38118;DHT22;23928;47.562;7.508;2023-12-28T07:45:12;3.00;99.90
38118;DHT22;23928;47.562;7.508;2023-12-28T07:47:37;3.20;99.90
38118;DHT22;23928;47.562;7.508;2023-12-28T07:50:03;3.00;99.90
38118;DHT22;23928;47.562;7.508;2023-12-28T07:52:29;3.00;99.90
38118;DHT22;23928;47.562;7.508;2023-12-28T07:54:55;3.00;99.90
38118;DHT22;23928;47.562;7.508;2023-12-28T07:57:21;3.00;99.90
38118;DHT22;23928;47.562;7.508;2023-12-28T07:59:46;3.00;99.90
38118;DHT22;23928;47.562;7.508;2023-12-28T08:02:12;3.20;99.90
38118;DHT22;23928;47.562;7.508;2023-12-28T08:04:37;3.20;99.90
38118;DHT22;23928;47.562;7.508;2023-12-28T08:07:03;3.30;99.90
38118;DHT22;23928;47.562;7.508;2023-12-28T08:09:29;3.20;99.90
38118;DHT22;23928;47.562;7.508;2023-12-28T08:11:55;3.40;99.90
38118;DHT22;23928;47.562;7.508;2023-12-28T08:14:21;3.50;99.90
38118;DHT22;23928;47.562;7.508;2023-12-28T08:16:47;3.30;99.90
38118;DHT22;23928;47.562;7.508;2023-12-28T08:19:13;3.40;99.90
38118;DHT22;23928;47.562;7.508;2023-12-28T08:21:38;3.40;99.90
38118;DHT22;23928;47.562;7.508;2023-12-28T08:24:04;3.60;99.90
38118;DHT22;23928;47.562;7.508;2023-12-28T08:26:30;3.60;99.90
38118;DHT22;23928;47.562;7.508;2023-12-28T08:28:55;3.70;99.90
38118;DHT22;23928;47.562;7.508;2023-12-28T08:31:21;3.70;99.90
38118;DHT22;23928;47.562;7.508;2023-12-28T08:33:47;3.60;99.90
38118;DHT22;23928;47.562;7.508;2023-12-28T08:36:12;3.70;99.90
38118;DHT22;23928;47.562;7.508;2023-12-28T08:38:38;3.90;99.90
38118;DHT22;23928;47.562;7.508;2023-12-28T08:41:04;4.10;99.90
38118;DHT22;23928;47.562;7.508;2023-12-28T08:43:35;4.10;99.90
38118;DHT22;23928;47.562;7.508;2023-12-28T08:46:01;4.00;99.90
38118;DHT22;23928;47.562;7.508;2023-12-28T08:48:27;3.90;99.90
38118;DHT22;23928;47.562;7.508;2023-12-28T08:50:53;4.00;99.90
38118;DHT22;23928;47.562;7.508;2023-12-28T08:53:18;3.90;99.90
38118;DHT22;23928;47.562;7.508;2023-12-28T08:55:44;3.90;99.90
38118;DHT22;23928;47.562;7.508;2023-12-28T08:58:09;4.10;99.90
38118;DHT22;23928;47.562;7.508;2023-12-28T09:00:35;4.00;99.90
38118;DHT22;23928;47.562;7.508;2023-12-28T09:03:00;4.10;99.90
38118;DHT22;23928;47.562;7.508;2023-12-28T09:05:26;4.10;99.90
38118;DHT22;23928;47.562;7.508;2023-12-28T09:07:51;4.00;99.90
38118;DHT22;23928;47.562;7.508;2023-12-28T09:10:17;4.10;99.90
38118;DHT22;23928;47.562;7.508;2023-12-28T09:12:43;4.00;99.90
38118;DHT22;23928;47.562;7.508;2023-12-28T09:15:08;4.20;99.90
38118;DHT22;23928;47.562;7.508;2023-12-28T09:17:34;4.30;99.90
38118;DHT22;23928;47.562;7.508;2023-12-28T09:20:00;4.40;99.90
38118;DHT22;23928;47.562;7.508;2023-12-28T09:22:29;4.50;99.90
38118;DHT22;23928;47.562;7.508;2023-12-28T09:24:55;4.40;99.90
38118;DHT22;23928;47.562;7.508;2023-12-28T09:27:21;4.60;99.90
38118;DHT22;23928;47.562;7.508;2023-12-28T09:29:46;4.60;99.90
38118;DHT22;23928;47.562;7.508;2023-12-28T09:32:12;4.60;99.90
38118;DHT22;23928;47.562;7.508;2023-12-28T09:34:37;4.70;99.90
38118;DHT22;23928;47.562;7.508;2023-12-28T09:37:03;4.60;99.90
38118;DHT22;23928;47.562;7.508;2023-12-28T09:39:29;4.50;99.90
38118;DHT22;23928;47.562;7.508;2023-12-28T09:42:23;4.80;99.90
38118;DHT22;23928;47.562;7.508;2023-12-28T09:44:50;4.80;99.90
38118;DHT22;23928;47.562;7.508;2023-12-28T09:47:17;4.70;99.90
38118;DHT22;23928;47.562;7.508;2023-12-28T09:49:43;4.90;99.90
38118;DHT22;23928;47.562;7.508;2023-12-28T09:52:09;4.90;99.90
38118;DHT22;23928;47.562;7.508;2023-12-28T09:54:35;5.00;99.90
38118;DHT22;23928;47.562;7.508;2023-12-28T09:57:01;5.10;99.90
38118;DHT22;23928;47.562;7.508;2023-12-28T09:59:28;5.00;99.90
38118;DHT22;23928;47.562;7.508;2023-12-28T10:01:55;5.10;99.90
38118;DHT22;23928;47.562;7.508;2023-12-28T10:04:21;5.10;99.90
38118;DHT22;23928;47.562;7.508;2023-12-28T10:06:47;5.10;99.90
38118;DHT22;23928;47.562;7.508;2023-12-28T10:09:13;5.10;99.90
38118;DHT22;23928;47.562;7.508;2023-12-28T10:11:38;5.40;99.90
38118;DHT22;23928;47.562;7.508;2023-12-28T10:14:04;5.50;99.90
38118;DHT22;23928;47.562;7.508;2023-12-28T10:16:30;5.80;99.90
38118;DHT22;23928;47.562;7.508;2023-12-28T10:18:56;5.80;99.90
38118;DHT22;23928;47.562;7.508;2023-12-28T10:21:25;5.70;99.90
38118;DHT22;23928;47.562;7.508;2023-12-28T10:23:50;5.80;99.90
38118;DHT22;23928;47.562;7.508;2023-12-28T10:26:18;5.70;99.90
38118;DHT22;23928;47.562;7.508;2023-12-28T10:28:44;5.80;99.90
38118;DHT22;23928;47.562;7.508;2023-12-28T10:31:10;5.80;99.90
38118;DHT22;23928;47.562;7.508;2023-12-28T10:33:36;5.90;99.90
38118;DHT22;23928;47.562;7.508;2023-12-28T10:36:06;6.10;99.90
38118;DHT22;23928;47.562;7.508;2023-12-28T10:38:36;6.10;99.90
38118;DHT22;23928;47.562;7.508;2023-12-28T10:41:04;6.30;99.90
38118;DHT22;23928;47.562;7.508;2023-12-28T10:43:40;6.20;99.90
38118;DHT22;23928;47.562;7.508;2023-12-28T10:46:08;6.40;99.90
38118;DHT22;23928;47.562;7.508;2023-12-28T10:48:38;6.50;99.90
38118;DHT22;23928;47.562;7.508;2023-12-28T10:51:05;6.60;99.90
38118;DHT22;23928;47.562;7.508;2023-12-28T10:53:37;6.70;99.90
38118;DHT22;23928;47.562;7.508;2023-12-28T10:56:57;6.60;99.90
38118;DHT22;23928;47.562;7.508;2023-12-28T10:59:10;6.60;99.90
38118;DHT22;23928;47.562;7.508;2023-12-28T11:01:41;6.60;99.90
38118;DHT22;23928;47.562;7.508;2023-12-28T11:04:15;6.70;99.90
38118;DHT22;23928;47.562;7.508;2023-12-28T11:06:43;6.80;99.90
38118;DHT22;23928;47.562;7.508;2023-12-28T11:09:10;6.90;99.90
38118;DHT22;23928;47.562;7.508;2023-12-28T11:11:37;7.00;99.90
38118;DHT22;23928;47.562;7.508;2023-12-28T11:14:03;7.00;99.90
38118;DHT22;23928;47.562;7.508;2023-12-28T11:16:30;7.20;99.90
38118;DHT22;23928;47.562;7.508;2023-12-28T11:18:58;7.20;99.90
38118;DHT22;23928;47.562;7.508;2023-12-28T11:21:24;7.30;99.90
38118;DHT22;23928;47.562;7.508;2023-12-28T11:23:50;7.30;99.90
38118;DHT22;23928;47.562;7.508;2023-12-28T11:26:20;7.40;99.90
38118;DHT22;23928;47.562;7.508;2023-12-28T11:28:46;7.50;99.90
38118;DHT22;23928;47.562;7.508;2023-12-28T11:31:16;7.50;99.90
38118;DHT22;23928;47.562;7.508;2023-12-28T11:33:50;7.40;99.90
38118;DHT22;23928;47.562;7.508;2023-12-28T11:36:23;7.40;99.90
38118;DHT22;23928;47.562;7.508;2023-12-28T11:38:53;7.40;99.90
38118;DHT22;23928;47.562;7.508;2023-12-28T11:41:20;7.60;99.90
38118;DHT22;23928;47.562;7.508;2023-12-28T11:43:52;7.70;99.90
38118;DHT22;23928;47.562;7.508;2023-12-28T11:46:18;7.60;99.90
38118;DHT22;23928;47.562;7.508;2023-12-28T11:48:45;7.70;99.90
38118;DHT22;23928;47.562;7.508;2023-12-28T11:51:10;7.70;99.90
38118;DHT22;23928;47.562;7.508;2023-12-28T11:53:36;7.80;99.90
38118;DHT22;23928;47.562;7.508;2023-12-28T11:56:02;8.00;99.90
38118;DHT22;23928;47.562;7.508;2023-12-28T11:58:28;8.00;99.90
38118;DHT22;23928;47.562;7.508;2023-12-28T12:00:54;8.10;99.90
38118;DHT22;23928;47.562;7.508;2023-12-28T12:03:19;7.90;99.90
38118;DHT22;23928;47.562;7.508;2023-12-28T12:05:45;7.80;99.90
38118;DHT22;23928;47.562;7.508;2023-12-28T12:08:10;7.90;99.90
38118;DHT22;23928;47.562;7.508;2023-12-28T12:10:40;7.80;99.90
38118;DHT22;23928;47.562;7.508;2023-12-28T12:13:07;7.70;99.90
38118;DHT22;23928;47.562;7.508;2023-12-28T12:15:33;7.60;99.90
38118;DHT22;23928;47.562;7.508;2023-12-28T12:17:58;7.70;99.90
38118;DHT22;23928;47.562;7.508;2023-12-28T12:20:24;7.70;99.90
38118;DHT22;23928;47.562;7.508;2023-12-28T12:22:51;7.70;99.90
38118;DHT22;23928;47.562;7.508;2023-12-28T12:25:17;7.80;99.90
38118;DHT22;23928;47.562;7.508;2023-12-28T12:27:45;7.80;99.90
38118;DHT22;23928;47.562;7.508;2023-12-28T12:30:11;7.80;99.90
38118;DHT22;23928;47.562;7.508;2023-12-28T12:32:37;7.80;99.90
38118;DHT22;23928;47.562;7.508;2023-12-28T12:35:06;7.90;99.90
38118;DHT22;23928;47.562;7.508;2023-12-28T12:37:31;8.00;99.90
38118;DHT22;23928;47.562;7.508;2023-12-28T12:39:57;8.00;99.90
38118;DHT22;23928;47.562;7.508;2023-12-28T12:42:23;8.10;99.90
38118;DHT22;23928;47.562;7.508;2023-12-28T12:44:48;8.10;99.90
38118;DHT22;23928;47.562;7.508;2023-12-28T12:47:14;8.10;99.90
38118;DHT22;23928;47.562;7.508;2023-12-28T12:49:39;8.10;99.90
38118;DHT22;23928;47.562;7.508;2023-12-28T12:52:08;8.00;99.90
38118;DHT22;23928;47.562;7.508;2023-12-28T12:54:34;8.00;99.90
38118;DHT22;23928;47.562;7.508;2023-12-28T12:56:59;8.10;99.90
38118;DHT22;23928;47.562;7.508;2023-12-28T12:59:25;7.90;99.90
38118;DHT22;23928;47.562;7.508;2023-12-28T13:01:51;7.90;99.90
38118;DHT22;23928;47.562;7.508;2023-12-28T13:04:18;7.80;99.90
38118;DHT22;23928;47.562;7.508;2023-12-28T13:06:45;7.90;99.90
38118;DHT22;23928;47.562;7.508;2023-12-28T13:09:10;7.90;99.90
38118;DHT22;23928;47.562;7.508;2023-12-28T13:11:37;8.00;99.90
38118;DHT22;23928;47.562;7.508;2023-12-28T13:14:03;8.00;99.90
38118;DHT22;23928;47.562;7.508;2023-12-28T13:16:30;8.10;99.90
38118;DHT22;23928;47.562;7.508;2023-12-28T13:18:56;8.10;99.90
38118;DHT22;23928;47.562;7.508;2023-12-28T13:21:22;8.10;99.90
38118;DHT22;23928;47.562;7.508;2023-12-28T13:23:47;7.80;99.90
38118;DHT22;23928;47.562;7.508;2023-12-28T13:26:13;7.80;99.90
38118;DHT22;23928;47.562;7.508;2023-12-28T13:28:39;7.90;99.90
38118;DHT22;23928;47.562;7.508;2023-12-28T13:31:04;8.00;99.90
38118;DHT22;23928;47.562;7.508;2023-12-28T13:33:30;7.90;99.90
38118;DHT22;23928;47.562;7.508;2023-12-28T13:35:55;7.80;99.90
38118;DHT22;23928;47.562;7.508;2023-12-28T13:38:21;7.90;99.90
38118;DHT22;23928;47.562;7.508;2023-12-28T13:40:47;7.90;99.90
38118;DHT22;23928;47.562;7.508;2023-12-28T13:43:13;7.90;99.90
38118;DHT22;23928;47.562;7.508;2023-12-28T13:45:38;8.00;99.90
38118;DHT22;23928;47.562;7.508;2023-12-28T13:48:04;7.90;99.90
38118;DHT22;23928;47.562;7.508;2023-12-28T13:50:30;8.00;99.90
38118;DHT22;23928;47.562;7.508;2023-12-28T13:52:56;8.10;99.90
38118;DHT22;23928;47.562;7.508;2023-12-28T13:55:22;8.00;99.90
38118;DHT22;23928;47.562;7.508;2023-12-28T13:57:47;7.90;99.90
38118;DHT22;23928;47.562;7.508;2023-12-28T14:00:13;7.90;99.90
38118;DHT22;23928;47.562;7.508;2023-12-28T14:02:39;8.00;99.90
38118;DHT22;23928;47.562;7.508;2023-12-28T14:05:07;7.90;99.90
38118;DHT22;23928;47.562;7.508;2023-12-28T14:07:33;7.90;99.90
38118;DHT22;23928;47.562;7.508;2023-12-28T14:09:58;8.00;99.90
38118;DHT22;23928;47.562;7.508;2023-12-28T14:12:24;8.10;99.90
38118;DHT22;23928;47.562;7.508;2023-12-28T14:14:49;8.00;99.90
38118;DHT22;23928;47.562;7.508;2023-12-28T14:17:15;8.00;99.90
38118;DHT22;23928;47.562;7.508;2023-12-28T14:19:45;8.00;99.90
38118;DHT22;23928;47.562;7.508;2023-12-28T14:22:11;8.00;99.90
38118;DHT22;23928;47.562;7.508;2023-12-28T14:24:37;8.00;99.90
38118;DHT22;23928;47.562;7.508;2023-12-28T14:27:04;7.80;99.90
38118;DHT22;23928;47.562;7.508;2023-12-28T14:29:30;7.90;99.90
38118;DHT22;23928;47.562;7.508;2023-12-28T14:31:56;7.90;99.90
38118;DHT22;23928;47.562;7.508;2023-12-28T14:34:21;7.80;99.90
38118;DHT22;23928;47.562;7.508;2023-12-28T14:36:48;7.80;99.90
38118;DHT22;23928;47.562;7.508;2023-12-28T14:39:16;7.80;99.90
38118;DHT22;23928;47.562;7.508;2023-12-28T14:41:44;7.80;99.90
38118;DHT22;23928;47.562;7.508;2023-12-28T14:44:10;7.70;99.90
38118;DHT22;23928;47.562;7.508;2023-12-28T14:46:35;7.70;99.90
38118;DHT22;23928;47.562;7.508;2023-12-28T14:49:01;7.80;99.90
38118;DHT22;23928;47.562;7.508;2023-12-28T14:51:28;7.70;99.90
38118;DHT22;23928;47.562;7.508;2023-12-28T14:53:53;7.60;99.90
38118;DHT22;23928;47.562;7.508;2023-12-28T14:56:19;7.70;99.90
38118;DHT22;23928;47.562;7.508;2023-12-28T14:58:46;7.70;99.90
38118;DHT22;23928;47.562;7.508;2023-12-28T15:01:14;7.70;99.90
38118;DHT22;23928;47.562;7.508;2023-12-28T15:03:40;7.70;99.90
38118;DHT22;23928;47.562;7.508;2023-12-28T15:06:06;7.70;99.90
38118;DHT22;23928;47.562;7.508;2023-12-28T15:08:32;7.70;99.90
38118;DHT22;23928;47.562;7.508;2023-12-28T15:10:58;7.70;99.90
38118;DHT22;23928;47.562;7.508;2023-12-28T15:13:25;7.70;99.90
38118;DHT22;23928;47.562;7.508;2023-12-28T15:15:51;7.70;99.90
38118;DHT22;23928;47.562;7.508;2023-12-28T15:18:17;7.60;99.90
38118;DHT22;23928;47.562;7.508;2023-12-28T15:20:45;7.60;99.90
38118;DHT22;23928;47.562;7.508;2023-12-28T15:23:11;7.50;99.90
38118;DHT22;23928;47.562;7.508;2023-12-28T15:25:37;7.50;99.90
38118;DHT22;23928;47.562;7.508;2023-12-28T15:28:03;7.40;99.90
38118;DHT22;23928;47.562;7.508;2023-12-28T15:30:29;7.50;99.90
38118;DHT22;23928;47.562;7.508;2023-12-28T15:32:54;7.40;99.90
38118;DHT22;23928;47.562;7.508;2023-12-28T15:35:20;7.30;99.90
38118;DHT22;23928;47.562;7.508;2023-12-28T15:37:45;7.30;99.90
38118;DHT22;23928;47.562;7.508;2023-12-28T15:40:11;7.40;99.90